sensor_id;sensor_type;location;lat;lon;timestamp;temperature;humidity
7028;DHT22;3555;53.248;10.336;2023-07-13T00:00:41;18.00;99.90
7028;DHT22;3555;53.248;10.336;2023-07-13T00:03:09;18.10;99.90
7028;DHT22;3555;53.248;10.336;2023-07-13T00:05:39;18.00;99.90
7028;DHT22;3555;53.248;10.336;2023-07-13T00:08:06;18.00;99.90
7028;DHT22;3555;53.248;10.336;2023-07-13T00:10:33;17.90;99.90
7028;DHT22;3555;53.248;10.336;2023-07-13T00:13:00;17.80;99.90
7028;DHT22;3555;53.248;10.336;2023-07-13T00:15:27;17.80;99.90
7028;DHT22;3555;53.248;10.336;2023-07-13T00:17:57;17.90;99.90
7028;DHT22;3555;53.248;10.336;2023-07-13T00:20:27;17.70;99.90
7028;DHT22;3555;53.248;10.336;2023-07-13T00:22:54;17.80;99.90
7028;DHT22;3555;53.248;10.336;2023-07-13T00:25:22;17.70;99.90
7028;DHT22;3555;53.248;10.336;2023-07-13T00:27:54;17.80;99.90
7028;DHT22;3555;53.248;10.336;2023-07-13T00:30:21;17.90;99.90
7028;DHT22;3555;53.248;10.336;2023-07-13T00:32:48;17.90;99.90
7028;DHT22;3555;53.248;10.336;2023-07-13T00:35:15;17.80;99.90
7028;DHT22;3555;53.248;10.336;2023-07-13T00:37:44;17.70;99.90
7028;DHT22;3555;53.248;10.336;2023-07-13T00:40:12;17.70;99.90
7028;DHT22;3555;53.248;10.336;2023-07-13T00:42:39;17.70;99.90
7028;DHT22;3555;53.248;10.336;2023-07-13T00:48:16;17.80;99.90
7028;DHT22;3555;53.248;10.336;2023-07-13T00:50:45;17.80;99.90
7028;DHT22;3555;53.248;10.336;2023-07-13T00:53:13;17.80;99.90
7028;DHT22;3555;53.248;10.336;2023-07-13T00:55:40;17.70;99.90
7028;DHT22;3555;53.248;10.336;2023-07-13T00:58:07;17.70;99.90
7028;DHT22;3555;53.248;10.336;2023-07-13T01:00:35;17.70;99.90
7028;DHT22;3555;53.248;10.336;2023-07-13T01:03:03;17.70;99.90
7028;DHT22;3555;53.248;10.336;2023-07-13T01:05:33;17.70;99.90
7028;DHT22;3555;53.248;10.336;2023-07-13T01:08:01;17.60;99.90
7028;DHT22;3555;53.248;10.336;2023-07-13T01:10:29;17.60;99.90
7028;DHT22;3555;53.248;10.336;2023-07-13T01:13:05;17.50;99.90
7028;DHT22;3555;53.248;10.336;2023-07-13T01:15:37;17.50;99.90
7028;DHT22;3555;53.248;10.336;2023-07-13T01:18:06;17.50;99.90
7028;DHT22;3555;53.248;10.336;2023-07-13T01:20:35;17.50;99.90
7028;DHT22;3555;53.248;10.336;2023-07-13T01:23:07;17.50;99.90
7028;DHT22;3555;53.248;10.336;2023-07-13T01:25:35;17.50;99.90
7028;DHT22;3555;53.248;10.336;2023-07-13T01:28:03;17.50;99.90
7028;DHT22;3555;53.248;10.336;2023-07-13T01:30:30;17.30;99.90
7028;DHT22;3555;53.248;10.336;2023-07-13T01:32:57;17.30;99.90
7028;DHT22;3555;53.248;10.336;2023-07-13T01:35:24;17.40;99.90
7028;DHT22;3555;53.248;10.336;2023-07-13T01:37:52;17.40;99.90
7028;DHT22;3555;53.248;10.336;2023-07-13T01:40:21;17.40;99.90
7028;DHT22;3555;53.248;10.336;2023-07-13T01:42:48;17.40;99.90
7028;DHT22;3555;53.248;10.336;2023-07-13T01:45:15;17.40;99.90
7028;DHT22;3555;53.248;10.336;2023-07-13T01:47:42;17.30;99.90
7028;DHT22;3555;53.248;10.336;2023-07-13T01:50:09;17.30;99.90
7028;DHT22;3555;53.248;10.336;2023-07-13T01:52:36;17.30;99.90
7028;DHT22;3555;53.248;10.336;2023-07-13T01:55:04;17.30;99.90
7028;DHT22;3555;53.248;10.336;2023-07-13T01:57:32;17.10;99.90
7028;DHT22;3555;53.248;10.336;2023-07-13T02:00:00;17.10;99.90
7028;DHT22;3555;53.248;10.336;2023-07-13T02:02:27;17.10;99.90
7028;DHT22;3555;53.248;10.336;2023-07-13T02:04:54;17.10;99.90
7028;DHT22;3555;53.248;10.336;2023-07-13T02:07:21;17.10;99.90
7028;DHT22;3555;53.248;10.336;2023-07-13T02:09:48;17.10;99.90
7028;DHT22;3555;53.248;10.336;2023-07-13T02:12:15;17.10;99.90
7028;DHT22;3555;53.248;10.336;2023-07-13T02:14:43;17.10;99.90
7028;DHT22;3555;53.248;10.336;2023-07-13T02:17:10;17.10;99.90
7028;DHT22;3555;53.248;10.336;2023-07-13T02:19:37;17.10;99.90
7028;DHT22;3555;53.248;10.336;2023-07-13T02:22:05;17.00;99.90
7028;DHT22;3555;53.248;10.336;2023-07-13T02:24:32;16.90;99.90
7028;DHT22;3555;53.248;10.336;2023-07-13T02:26:59;16.90;99.90
7028;DHT22;3555;53.248;10.336;2023-07-13T02:29:25;16.90;99.90
7028;DHT22;3555;53.248;10.336;2023-07-13T02:31:54;16.90;99.90
7028;DHT22;3555;53.248;10.336;2023-07-13T02:34:20;16.80;99.90
7028;DHT22;3555;53.248;10.336;2023-07-13T02:36:47;16.80;99.90
7028;DHT22;3555;53.248;10.336;2023-07-13T02:39:14;16.90;99.90
7028;DHT22;3555;53.248;10.336;2023-07-13T02:41:42;16.80;99.90
7028;DHT22;3555;53.248;10.336;2023-07-13T02:44:09;16.70;99.90
7028;DHT22;3555;53.248;10.336;2023-07-13T02:46:36;16.70;99.90
7028;DHT22;3555;53.248;10.336;2023-07-13T02:49:05;17.10;99.90
7028;DHT22;3555;53.248;10.336;2023-07-13T02:51:32;16.70;99.90
7028;DHT22;3555;53.248;10.336;2023-07-13T02:54:00;16.60;99.90
7028;DHT22;3555;53.248;10.336;2023-07-13T02:56:28;16.60;99.90
7028;DHT22;3555;53.248;10.336;2023-07-13T02:58:56;16.60;99.90
7028;DHT22;3555;53.248;10.336;2023-07-13T03:01:23;16.60;99.90
7028;DHT22;3555;53.248;10.336;2023-07-13T03:03:51;16.60;99.90
7028;DHT22;3555;53.248;10.336;2023-07-13T03:06:20;16.70;99.90
7028;DHT22;3555;53.248;10.336;2023-07-13T03:08:48;16.70;99.90
7028;DHT22;3555;53.248;10.336;2023-07-13T03:11:18;16.70;99.90
7028;DHT22;3555;53.248;10.336;2023-07-13T03:13:46;16.50;99.90
7028;DHT22;3555;53.248;10.336;2023-07-13T03:16:15;16.50;99.90
7028;DHT22;3555;53.248;10.336;2023-07-13T03:18:42;16.50;99.90
7028;DHT22;3555;53.248;10.336;2023-07-13T03:21:10;16.40;99.90
7028;DHT22;3555;53.248;10.336;2023-07-13T03:23:38;16.40;99.90
7028;DHT22;3555;53.248;10.336;2023-07-13T03:26:06;16.40;99.90
7028;DHT22;3555;53.248;10.336;2023-07-13T03:28:34;16.40;99.90
7028;DHT22;3555;53.248;10.336;2023-07-13T03:31:02;16.40;99.90
7028;DHT22;3555;53.248;10.336;2023-07-13T03:33:30;16.40;99.90
7028;DHT22;3555;53.248;10.336;2023-07-13T03:35:57;16.40;99.90
7028;DHT22;3555;53.248;10.336;2023-07-13T03:38:25;16.40;99.90
7028;DHT22;3555;53.248;10.336;2023-07-13T03:40:54;16.40;99.90
7028;DHT22;3555;53.248;10.336;2023-07-13T03:43:21;16.40;99.90
7028;DHT22;3555;53.248;10.336;2023-07-13T03:45:48;16.50;99.90
7028;DHT22;3555;53.248;10.336;2023-07-13T03:48:15;16.40;99.90
7028;DHT22;3555;53.248;10.336;2023-07-13T03:50:42;16.40;99.90
7028;DHT22;3555;53.248;10.336;2023-07-13T03:53:09;16.40;99.90
7028;DHT22;3555;53.248;10.336;2023-07-13T03:55:36;16.40;99.90
7028;DHT22;3555;53.248;10.336;2023-07-13T03:58:26;16.40;99.90
7028;DHT22;3555;53.248;10.336;2023-07-13T04:00:53;16.30;99.90
7028;DHT22;3555;53.248;10.336;2023-07-13T04:03:21;16.30;99.90
7028;DHT22;3555;53.248;10.336;2023-07-13T04:05:47;16.30;99.90
7028;DHT22;3555;53.248;10.336;2023-07-13T04:08:15;16.40;99.90
7028;DHT22;3555;53.248;10.336;2023-07-13T04:10:42;16.50;99.90
7028;DHT22;3555;53.248;10.336;2023-07-13T04:13:09;16.60;99.90
7028;DHT22;3555;53.248;10.336;2023-07-13T04:15:39;16.70;99.90
7028;DHT22;3555;53.248;10.336;2023-07-13T04:18:06;16.80;99.90
7028;DHT22;3555;53.248;10.336;2023-07-13T04:20:33;16.90;99.90
7028;DHT22;3555;53.248;10.336;2023-07-13T04:23:00;17.00;99.90
7028;DHT22;3555;53.248;10.336;2023-07-13T04:25:27;17.10;99.90
7028;DHT22;3555;53.248;10.336;2023-07-13T04:27:54;17.30;99.90
7028;DHT22;3555;53.248;10.336;2023-07-13T04:30:21;17.40;99.90
7028;DHT22;3555;53.248;10.336;2023-07-13T04:32:50;17.40;99.90
7028;DHT22;3555;53.248;10.336;2023-07-13T04:35:18;17.50;99.90
7028;DHT22;3555;53.248;10.336;2023-07-13T04:37:46;17.50;99.90
7028;DHT22;3555;53.248;10.336;2023-07-13T04:40:15;17.40;99.90
7028;DHT22;3555;53.248;10.336;2023-07-13T04:42:43;17.30;99.90
7028;DHT22;3555;53.248;10.336;2023-07-13T04:45:10;17.30;99.90
7028;DHT22;3555;53.248;10.336;2023-07-13T04:47:37;17.20;99.90
7028;DHT22;3555;53.248;10.336;2023-07-13T04:50:06;17.20;99.90
7028;DHT22;3555;53.248;10.336;2023-07-13T04:52:33;17.10;99.90
7028;DHT22;3555;53.248;10.336;2023-07-13T04:55:00;17.10;99.90
7028;DHT22;3555;53.248;10.336;2023-07-13T04:57:27;17.20;99.90
7028;DHT22;3555;53.248;10.336;2023-07-13T04:59:54;17.20;99.90
7028;DHT22;3555;53.248;10.336;2023-07-13T05:02:21;17.20;99.90
7028;DHT22;3555;53.248;10.336;2023-07-13T05:04:48;17.20;99.90
7028;DHT22;3555;53.248;10.336;2023-07-13T05:07:16;17.30;99.90
7028;DHT22;3555;53.248;10.336;2023-07-13T05:09:43;17.40;99.90
7028;DHT22;3555;53.248;10.336;2023-07-13T05:12:10;17.60;99.90
7028;DHT22;3555;53.248;10.336;2023-07-13T05:14:37;17.70;78.80
7028;DHT22;3555;53.248;10.336;2023-07-13T05:17:04;17.90;99.90
7028;DHT22;3555;53.248;10.336;2023-07-13T05:19:32;18.00;1.00
7028;DHT22;3555;53.248;10.336;2023-07-13T05:21:58;18.20;1.00
7028;DHT22;3555;53.248;10.336;2023-07-13T05:24:27;18.20;1.00
7028;DHT22;3555;53.248;10.336;2023-07-13T05:26:53;18.20;1.00
7028;DHT22;3555;53.248;10.336;2023-07-13T05:29:20;18.70;99.90
7028;DHT22;3555;53.248;10.336;2023-07-13T05:31:47;18.50;99.90
7028;DHT22;3555;53.248;10.336;2023-07-13T05:34:14;18.60;68.50
7028;DHT22;3555;53.248;10.336;2023-07-13T05:36:42;18.80;99.90
7028;DHT22;3555;53.248;10.336;2023-07-13T05:39:09;19.00;1.00
7028;DHT22;3555;53.248;10.336;2023-07-13T05:41:38;19.10;7.50
7028;DHT22;3555;53.248;10.336;2023-07-13T05:44:05;19.30;99.90
7028;DHT22;3555;53.248;10.336;2023-07-13T05:46:32;19.40;1.00
7028;DHT22;3555;53.248;10.336;2023-07-13T05:48:59;19.50;99.90
7028;DHT22;3555;53.248;10.336;2023-07-13T05:51:26;19.70;35.70
7028;DHT22;3555;53.248;10.336;2023-07-13T05:53:53;19.80;1.00
7028;DHT22;3555;53.248;10.336;2023-07-13T05:56:20;20.00;1.00
7028;DHT22;3555;53.248;10.336;2023-07-13T05:58:49;20.20;99.90
7028;DHT22;3555;53.248;10.336;2023-07-13T06:01:16;20.50;5.30
7028;DHT22;3555;53.248;10.336;2023-07-13T06:03:45;20.60;85.20
7028;DHT22;3555;53.248;10.336;2023-07-13T06:06:13;20.90;92.60
7028;DHT22;3555;53.248;10.336;2023-07-13T06:08:40;21.20;99.90
7028;DHT22;3555;53.248;10.336;2023-07-13T06:11:10;21.20;99.60
7028;DHT22;3555;53.248;10.336;2023-07-13T06:13:39;21.30;99.90
7028;DHT22;3555;53.248;10.336;2023-07-13T06:16:07;21.20;93.00
7028;DHT22;3555;53.248;10.336;2023-07-13T06:18:36;21.10;99.90
7028;DHT22;3555;53.248;10.336;2023-07-13T06:21:06;21.30;1.00
7028;DHT22;3555;53.248;10.336;2023-07-13T06:23:34;21.60;1.00
7028;DHT22;3555;53.248;10.336;2023-07-13T06:26:01;21.90;1.00
7028;DHT22;3555;53.248;10.336;2023-07-13T06:28:28;22.00;1.00
7028;DHT22;3555;53.248;10.336;2023-07-13T06:30:55;22.10;1.00
7028;DHT22;3555;53.248;10.336;2023-07-13T06:33:24;22.20;1.00
7028;DHT22;3555;53.248;10.336;2023-07-13T06:35:51;22.30;1.00
7028;DHT22;3555;53.248;10.336;2023-07-13T06:38:18;22.40;99.90
7028;DHT22;3555;53.248;10.336;2023-07-13T06:40:45;22.60;99.90
7028;DHT22;3555;53.248;10.336;2023-07-13T06:43:12;22.60;99.90
7028;DHT22;3555;53.248;10.336;2023-07-13T06:45:41;22.70;99.90
7028;DHT22;3555;53.248;10.336;2023-07-13T06:48:08;22.80;1.00
7028;DHT22;3555;53.248;10.336;2023-07-13T06:50:36;22.90;1.00
7028;DHT22;3555;53.248;10.336;2023-07-13T06:53:03;23.30;96.80
7028;DHT22;3555;53.248;10.336;2023-07-13T06:55:30;23.70;1.00
7028;DHT22;3555;53.248;10.336;2023-07-13T06:57:57;23.60;1.00
7028;DHT22;3555;53.248;10.336;2023-07-13T07:00:24;23.50;1.00
7028;DHT22;3555;53.248;10.336;2023-07-13T07:02:51;23.30;1.00
7028;DHT22;3555;53.248;10.336;2023-07-13T07:05:18;23.30;1.00
7028;DHT22;3555;53.248;10.336;2023-07-13T07:07:49;23.30;1.00
7028;DHT22;3555;53.248;10.336;2023-07-13T07:10:17;23.40;1.00
7028;DHT22;3555;53.248;10.336;2023-07-13T07:12:44;23.40;1.00
7028;DHT22;3555;53.248;10.336;2023-07-13T07:15:11;23.30;1.00
7028;DHT22;3555;53.248;10.336;2023-07-13T07:17:38;23.40;1.00
7028;DHT22;3555;53.248;10.336;2023-07-13T07:20:05;23.40;1.00
7028;DHT22;3555;53.248;10.336;2023-07-13T07:22:33;23.50;1.00
7028;DHT22;3555;53.248;10.336;2023-07-13T07:25:01;23.30;1.00
7028;DHT22;3555;53.248;10.336;2023-07-13T07:27:28;23.60;1.00
7028;DHT22;3555;53.248;10.336;2023-07-13T07:29:54;24.00;1.00
7028;DHT22;3555;53.248;10.336;2023-07-13T07:32:23;24.00;99.90
7028;DHT22;3555;53.248;10.336;2023-07-13T07:34:50;23.90;99.90
7028;DHT22;3555;53.248;10.336;2023-07-13T07:37:17;23.60;99.90
7028;DHT22;3555;53.248;10.336;2023-07-13T07:39:44;23.20;1.00
7028;DHT22;3555;53.248;10.336;2023-07-13T07:42:12;23.20;1.00
7028;DHT22;3555;53.248;10.336;2023-07-13T07:44:40;23.40;1.00
7028;DHT22;3555;53.248;10.336;2023-07-13T07:47:07;23.30;1.00
7028;DHT22;3555;53.248;10.336;2023-07-13T07:49:34;23.50;1.00
7028;DHT22;3555;53.248;10.336;2023-07-13T07:52:01;23.70;1.00
7028;DHT22;3555;53.248;10.336;2023-07-13T07:54:29;23.60;99.90
7028;DHT22;3555;53.248;10.336;2023-07-13T07:56:56;23.60;1.00
7028;DHT22;3555;53.248;10.336;2023-07-13T07:59:24;23.60;1.00
7028;DHT22;3555;53.248;10.336;2023-07-13T08:01:51;23.60;99.90
7028;DHT22;3555;53.248;10.336;2023-07-13T08:04:18;23.50;1.00
7028;DHT22;3555;53.248;10.336;2023-07-13T08:06:45;23.80;1.00
7028;DHT22;3555;53.248;10.336;2023-07-13T08:09:11;23.80;99.90
7028;DHT22;3555;53.248;10.336;2023-07-13T08:11:38;23.90;99.90
7028;DHT22;3555;53.248;10.336;2023-07-13T08:14:05;23.80;99.90
7028;DHT22;3555;53.248;10.336;2023-07-13T08:16:33;24.00;99.90
7028;DHT22;3555;53.248;10.336;2023-07-13T08:19:00;23.90;99.90
7028;DHT22;3555;53.248;10.336;2023-07-13T08:21:27;24.10;99.90
7028;DHT22;3555;53.248;10.336;2023-07-13T08:23:54;23.80;99.90
7028;DHT22;3555;53.248;10.336;2023-07-13T08:26:22;23.80;99.90
7028;DHT22;3555;53.248;10.336;2023-07-13T08:28:49;24.00;99.90
7028;DHT22;3555;53.248;10.336;2023-07-13T08:31:15;24.00;99.90
7028;DHT22;3555;53.248;10.336;2023-07-13T08:33:44;23.90;99.90
7028;DHT22;3555;53.248;10.336;2023-07-13T08:36:11;23.50;99.90
7028;DHT22;3555;53.248;10.336;2023-07-13T08:38:38;23.30;99.90
7028;DHT22;3555;53.248;10.336;2023-07-13T08:41:11;23.10;99.90
7028;DHT22;3555;53.248;10.336;2023-07-13T08:43:40;23.00;99.90
7028;DHT22;3555;53.248;10.336;2023-07-13T08:46:12;23.10;99.90
7028;DHT22;3555;53.248;10.336;2023-07-13T08:48:44;23.20;99.90
7028;DHT22;3555;53.248;10.336;2023-07-13T08:51:22;23.60;99.90
7028;DHT22;3555;53.248;10.336;2023-07-13T08:53:54;24.20;99.90
7028;DHT22;3555;53.248;10.336;2023-07-13T08:56:31;24.40;97.70
7028;DHT22;3555;53.248;10.336;2023-07-13T08:59:02;24.60;62.20
7028;DHT22;3555;53.248;10.336;2023-07-13T09:01:39;24.60;18.60
7028;DHT22;3555;53.248;10.336;2023-07-13T09:04:14;24.40;1.00
7028;DHT22;3555;53.248;10.336;2023-07-13T09:06:55;24.30;1.00
7028;DHT22;3555;53.248;10.336;2023-07-13T09:09:35;23.80;1.00
7028;DHT22;3555;53.248;10.336;2023-07-13T09:12:11;23.60;20.40
7028;DHT22;3555;53.248;10.336;2023-07-13T09:14:43;23.80;80.60
7028;DHT22;3555;53.248;10.336;2023-07-13T09:17:16;24.00;29.30
7028;DHT22;3555;53.248;10.336;2023-07-13T09:19:48;24.40;24.90
7028;DHT22;3555;53.248;10.336;2023-07-13T09:22:19;24.30;1.00
7028;DHT22;3555;53.248;10.336;2023-07-13T09:24:54;24.40;1.00
7028;DHT22;3555;53.248;10.336;2023-07-13T09:27:23;24.40;1.00
7028;DHT22;3555;53.248;10.336;2023-07-13T09:30:01;24.50;1.00
7028;DHT22;3555;53.248;10.336;2023-07-13T09:32:29;24.90;1.00
7028;DHT22;3555;53.248;10.336;2023-07-13T09:34:57;25.20;1.00
7028;DHT22;3555;53.248;10.336;2023-07-13T09:37:30;25.40;1.00
7028;DHT22;3555;53.248;10.336;2023-07-13T09:39:59;25.80;1.00
7028;DHT22;3555;53.248;10.336;2023-07-13T09:42:31;25.60;1.00
7028;DHT22;3555;53.248;10.336;2023-07-13T09:45:00;25.40;1.00
7028;DHT22;3555;53.248;10.336;2023-07-13T09:47:30;25.40;1.00
7028;DHT22;3555;53.248;10.336;2023-07-13T09:50:00;25.30;1.00
7028;DHT22;3555;53.248;10.336;2023-07-13T09:52:29;25.30;1.00
7028;DHT22;3555;53.248;10.336;2023-07-13T09:55:24;25.00;1.00
7028;DHT22;3555;53.248;10.336;2023-07-13T09:57:51;24.60;20.60
7028;DHT22;3555;53.248;10.336;2023-07-13T10:00:23;24.40;99.90
7028;DHT22;3555;53.248;10.336;2023-07-13T10:02:59;24.20;99.90
7028;DHT22;3555;53.248;10.336;2023-07-13T10:05:28;24.00;99.90
7028;DHT22;3555;53.248;10.336;2023-07-13T10:08:03;24.10;99.90
7028;DHT22;3555;53.248;10.336;2023-07-13T10:10:33;24.10;99.90
7028;DHT22;3555;53.248;10.336;2023-07-13T10:13:02;24.20;99.90
7028;DHT22;3555;53.248;10.336;2023-07-13T10:15:31;24.40;99.90
7028;DHT22;3555;53.248;10.336;2023-07-13T10:17:59;24.60;99.90
7028;DHT22;3555;53.248;10.336;2023-07-13T10:20:28;24.60;99.90
7028;DHT22;3555;53.248;10.336;2023-07-13T10:22:58;24.80;99.90
7028;DHT22;3555;53.248;10.336;2023-07-13T10:25:31;24.90;59.50
7028;DHT22;3555;53.248;10.336;2023-07-13T10:28:03;25.30;21.70
7028;DHT22;3555;53.248;10.336;2023-07-13T10:30:34;25.40;1.00
7028;DHT22;3555;53.248;10.336;2023-07-13T10:33:03;25.60;1.00
7028;DHT22;3555;53.248;10.336;2023-07-13T10:35:34;25.90;1.00
7028;DHT22;3555;53.248;10.336;2023-07-13T10:38:03;26.30;1.00
7028;DHT22;3555;53.248;10.336;2023-07-13T10:40:35;26.60;1.00
7028;DHT22;3555;53.248;10.336;2023-07-13T10:43:09;27.00;1.00
7028;DHT22;3555;53.248;10.336;2023-07-13T10:45:38;26.80;1.00
7028;DHT22;3555;53.248;10.336;2023-07-13T10:48:07;26.50;1.00
7028;DHT22;3555;53.248;10.336;2023-07-13T10:50:40;26.50;1.00
7028;DHT22;3555;53.248;10.336;2023-07-13T10:53:18;26.70;1.00
7028;DHT22;3555;53.248;10.336;2023-07-13T10:55:56;26.70;1.00
7028;DHT22;3555;53.248;10.336;2023-07-13T10:58:29;26.90;1.00
7028;DHT22;3555;53.248;10.336;2023-07-13T11:01:07;27.00;1.00
7028;DHT22;3555;53.248;10.336;2023-07-13T11:03:36;27.30;1.00
7028;DHT22;3555;53.248;10.336;2023-07-13T11:06:12;27.50;1.00
7028;DHT22;3555;53.248;10.336;2023-07-13T11:08:52;27.40;1.00
7028;DHT22;3555;53.248;10.336;2023-07-13T11:11:38;27.60;1.00
7028;DHT22;3555;53.248;10.336;2023-07-13T11:14:26;27.90;1.00
7028;DHT22;3555;53.248;10.336;2023-07-13T11:16:54;28.00;1.00
7028;DHT22;3555;53.248;10.336;2023-07-13T11:19:48;27.90;1.00
7028;DHT22;3555;53.248;10.336;2023-07-13T11:22:24;28.10;1.00
7028;DHT22;3555;53.248;10.336;2023-07-13T11:25:02;28.10;1.00
7028;DHT22;3555;53.248;10.336;2023-07-13T11:27:52;28.10;1.00
7028;DHT22;3555;53.248;10.336;2023-07-13T11:30:34;28.00;1.00
7028;DHT22;3555;53.248;10.336;2023-07-13T11:33:09;28.40;1.00
7028;DHT22;3555;53.248;10.336;2023-07-13T11:35:44;28.70;1.00
7028;DHT22;3555;53.248;10.336;2023-07-13T11:38:19;29.10;1.00
7028;DHT22;3555;53.248;10.336;2023-07-13T11:40:47;28.90;1.00
7028;DHT22;3555;53.248;10.336;2023-07-13T11:43:16;28.60;1.00
7028;DHT22;3555;53.248;10.336;2023-07-13T11:45:43;28.10;1.00
7028;DHT22;3555;53.248;10.336;2023-07-13T11:48:21;28.20;1.00
7028;DHT22;3555;53.248;10.336;2023-07-13T11:50:55;28.30;1.00
7028;DHT22;3555;53.248;10.336;2023-07-13T11:53:27;28.50;1.00
7028;DHT22;3555;53.248;10.336;2023-07-13T11:55:55;28.30;1.00
7028;DHT22;3555;53.248;10.336;2023-07-13T11:58:24;28.10;1.00
7028;DHT22;3555;53.248;10.336;2023-07-13T12:00:55;27.90;1.00
7028;DHT22;3555;53.248;10.336;2023-07-13T12:03:25;27.90;1.00
7028;DHT22;3555;53.248;10.336;2023-07-13T12:05:56;28.00;1.00
7028;DHT22;3555;53.248;10.336;2023-07-13T12:08:25;28.30;1.00
7028;DHT22;3555;53.248;10.336;2023-07-13T12:11:04;28.40;1.00
7028;DHT22;3555;53.248;10.336;2023-07-13T12:13:36;28.50;1.00
7028;DHT22;3555;53.248;10.336;2023-07-13T12:16:12;28.40;1.00
7028;DHT22;3555;53.248;10.336;2023-07-13T12:18:42;28.80;1.00
7028;DHT22;3555;53.248;10.336;2023-07-13T12:21:14;28.50;1.00
7028;DHT22;3555;53.248;10.336;2023-07-13T12:23:47;28.00;1.00
7028;DHT22;3555;53.248;10.336;2023-07-13T12:26:15;27.20;1.00
7028;DHT22;3555;53.248;10.336;2023-07-13T12:28:46;26.50;1.00
7028;DHT22;3555;53.248;10.336;2023-07-13T12:31:32;26.60;1.00
7028;DHT22;3555;53.248;10.336;2023-07-13T12:34:02;26.50;1.00
7028;DHT22;3555;53.248;10.336;2023-07-13T12:36:32;26.50;1.00
7028;DHT22;3555;53.248;10.336;2023-07-13T12:39:13;26.20;1.00
7028;DHT22;3555;53.248;10.336;2023-07-13T12:41:41;26.20;1.00
7028;DHT22;3555;53.248;10.336;2023-07-13T12:44:12;26.40;1.00
7028;DHT22;3555;53.248;10.336;2023-07-13T12:46:39;26.40;1.00
7028;DHT22;3555;53.248;10.336;2023-07-13T12:49:07;26.30;1.00
7028;DHT22;3555;53.248;10.336;2023-07-13T12:51:37;26.30;1.00
7028;DHT22;3555;53.248;10.336;2023-07-13T12:54:15;26.30;1.00
7028;DHT22;3555;53.248;10.336;2023-07-13T12:56:42;26.40;1.00
7028;DHT22;3555;53.248;10.336;2023-07-13T12:59:17;26.20;1.00
7028;DHT22;3555;53.248;10.336;2023-07-13T13:01:46;25.10;1.00
7028;DHT22;3555;53.248;10.336;2023-07-13T13:04:15;24.40;1.00
7028;DHT22;3555;53.248;10.336;2023-07-13T13:06:47;23.80;99.90
7028;DHT22;3555;53.248;10.336;2023-07-13T13:09:17;23.40;1.00
7028;DHT22;3555;53.248;10.336;2023-07-13T13:11:45;23.30;99.90
7028;DHT22;3555;53.248;10.336;2023-07-13T13:14:12;23.00;2.10
7028;DHT22;3555;53.248;10.336;2023-07-13T13:16:46;22.70;1.00
7028;DHT22;3555;53.248;10.336;2023-07-13T13:19:17;22.60;99.90
7028;DHT22;3555;53.248;10.336;2023-07-13T13:21:45;22.50;99.90
7028;DHT22;3555;53.248;10.336;2023-07-13T13:24:15;22.40;99.90
7028;DHT22;3555;53.248;10.336;2023-07-13T13:26:44;22.30;99.90
7028;DHT22;3555;53.248;10.336;2023-07-13T13:29:13;22.30;99.90
7028;DHT22;3555;53.248;10.336;2023-07-13T13:31:40;22.00;99.90
7028;DHT22;3555;53.248;10.336;2023-07-13T13:34:09;21.70;99.90
7028;DHT22;3555;53.248;10.336;2023-07-13T13:36:36;21.40;1.00
7028;DHT22;3555;53.248;10.336;2023-07-13T13:39:08;21.20;1.00
7028;DHT22;3555;53.248;10.336;2023-07-13T13:41:44;21.00;99.90
7028;DHT22;3555;53.248;10.336;2023-07-13T13:44:10;21.00;1.00
7028;DHT22;3555;53.248;10.336;2023-07-13T13:46:37;21.00;1.00
7028;DHT22;3555;53.248;10.336;2023-07-13T13:49:04;21.30;1.00
7028;DHT22;3555;53.248;10.336;2023-07-13T13:51:32;21.40;1.00
7028;DHT22;3555;53.248;10.336;2023-07-13T13:53:59;21.60;1.00
7028;DHT22;3555;53.248;10.336;2023-07-13T13:56:27;21.60;99.90
7028;DHT22;3555;53.248;10.336;2023-07-13T13:58:55;21.70;1.00
7028;DHT22;3555;53.248;10.336;2023-07-13T14:01:22;21.90;1.00
7028;DHT22;3555;53.248;10.336;2023-07-13T14:03:50;21.90;1.00
7028;DHT22;3555;53.248;10.336;2023-07-13T14:06:18;22.00;1.00
7028;DHT22;3555;53.248;10.336;2023-07-13T14:08:45;21.90;1.00
7028;DHT22;3555;53.248;10.336;2023-07-13T14:11:13;21.90;99.90
7028;DHT22;3555;53.248;10.336;2023-07-13T14:13:43;21.80;1.00
7028;DHT22;3555;53.248;10.336;2023-07-13T14:16:16;21.90;1.00
7028;DHT22;3555;53.248;10.336;2023-07-13T14:18:44;21.90;1.00
7028;DHT22;3555;53.248;10.336;2023-07-13T14:21:12;21.80;1.00
7028;DHT22;3555;53.248;10.336;2023-07-13T14:23:40;21.70;99.90
7028;DHT22;3555;53.248;10.336;2023-07-13T14:26:11;21.60;99.90
7028;DHT22;3555;53.248;10.336;2023-07-13T14:28:41;21.60;99.90
7028;DHT22;3555;53.248;10.336;2023-07-13T14:31:08;21.30;34.80
7028;DHT22;3555;53.248;10.336;2023-07-13T14:33:37;21.20;1.00
7028;DHT22;3555;53.248;10.336;2023-07-13T14:36:21;21.20;1.00
7028;DHT22;3555;53.248;10.336;2023-07-13T14:38:50;21.30;1.00
7028;DHT22;3555;53.248;10.336;2023-07-13T14:41:16;21.40;1.00
7028;DHT22;3555;53.248;10.336;2023-07-13T14:43:43;21.50;94.00
7028;DHT22;3555;53.248;10.336;2023-07-13T14:46:21;21.30;85.40
7028;DHT22;3555;53.248;10.336;2023-07-13T14:48:50;21.40;99.90
7028;DHT22;3555;53.248;10.336;2023-07-13T14:51:17;21.30;1.00
7028;DHT22;3555;53.248;10.336;2023-07-13T14:53:44;21.40;99.90
7028;DHT22;3555;53.248;10.336;2023-07-13T14:56:12;21.30;99.90
7028;DHT22;3555;53.248;10.336;2023-07-13T14:58:40;21.20;99.90
7028;DHT22;3555;53.248;10.336;2023-07-13T15:01:12;21.20;1.00
7028;DHT22;3555;53.248;10.336;2023-07-13T15:03:43;21.00;1.00
7028;DHT22;3555;53.248;10.336;2023-07-13T15:06:12;20.90;1.00
7028;DHT22;3555;53.248;10.336;2023-07-13T15:08:40;20.80;1.00
7028;DHT22;3555;53.248;10.336;2023-07-13T15:11:07;20.50;1.00
7028;DHT22;3555;53.248;10.336;2023-07-13T15:13:37;20.60;1.00
7028;DHT22;3555;53.248;10.336;2023-07-13T15:16:08;20.50;1.00
7028;DHT22;3555;53.248;10.336;2023-07-13T15:18:39;20.60;99.90
7028;DHT22;3555;53.248;10.336;2023-07-13T15:21:08;20.60;99.90
7028;DHT22;3555;53.248;10.336;2023-07-13T15:23:37;20.70;1.00
7028;DHT22;3555;53.248;10.336;2023-07-13T15:26:04;20.70;18.20
7028;DHT22;3555;53.248;10.336;2023-07-13T15:28:32;20.70;1.00
7028;DHT22;3555;53.248;10.336;2023-07-13T15:30:59;20.50;1.00
7028;DHT22;3555;53.248;10.336;2023-07-13T15:33:27;20.50;1.00
7028;DHT22;3555;53.248;10.336;2023-07-13T15:35:55;20.60;1.00
7028;DHT22;3555;53.248;10.336;2023-07-13T15:38:25;20.40;1.00
7028;DHT22;3555;53.248;10.336;2023-07-13T15:40:55;20.40;81.80
7028;DHT22;3555;53.248;10.336;2023-07-13T15:43:23;20.60;99.90
7028;DHT22;3555;53.248;10.336;2023-07-13T15:45:50;20.70;99.90
7028;DHT22;3555;53.248;10.336;2023-07-13T15:48:18;20.70;1.00
7028;DHT22;3555;53.248;10.336;2023-07-13T15:50:47;20.80;1.00
7028;DHT22;3555;53.248;10.336;2023-07-13T15:53:15;20.80;1.00
7028;DHT22;3555;53.248;10.336;2023-07-13T15:55:46;21.00;1.00
7028;DHT22;3555;53.248;10.336;2023-07-13T15:58:14;21.10;99.90
7028;DHT22;3555;53.248;10.336;2023-07-13T16:00:41;21.10;99.90
7028;DHT22;3555;53.248;10.336;2023-07-13T16:03:08;21.20;99.90
7028;DHT22;3555;53.248;10.336;2023-07-13T16:05:35;21.30;99.90
7028;DHT22;3555;53.248;10.336;2023-07-13T16:08:05;21.50;99.90